Time;durP1;ratioP1;P1;durP2;ratioP2;P2;SDS_P1;SDS_P2;PMS_P1;PMS_P2;Temp;Humidity;BMP_temperature;BMP_pressure;BME280_temperature;BME280_humidity;BME280_pressure;Samples;Min_cycle;Max_cycle;Signal;HPM_P1;HPM_P2
2023/04/18 00:02:16;;;;;;;13.43;7.20;;;7.00;99.90;;;;;;4995815;28;20046;-70
2023/04/18 00:04:46;;;;;;;15.73;7.50;;;7.10;99.90;;;;;;5001234;28;20407;-70
2023/04/18 00:07:16;;;;;;;14.00;7.72;;;7.10;99.90;;;;;;4998678;28;20384;-70
2023/04/18 00:09:42;;;;;;;14.00;7.20;;;7.00;99.90;;;;;;4987886;28;20374;-70
2023/04/18 00:12:10;;;;;;;12.48;6.97;;;7.00;99.90;;;;;;4995515;28;20417;-70
2023/04/18 00:14:36;;;;;;;14.82;6.40;;;7.00;99.90;;;;;;4991065;28;20132;-70
2023/04/18 00:17:07;;;;;;;14.88;7.60;;;7.00;99.90;;;;;;5010421;28;20125;-70
2023/04/18 00:19:33;;;;;;;12.77;7.45;;;6.90;99.90;;;;;;4996964;28;20038;-70
2023/04/18 00:21:59;;;;;;;13.05;7.60;;;6.90;99.90;;;;;;4993642;28;20042;-70
2023/04/18 00:24:25;;;;;;;15.47;8.07;;;6.90;99.90;;;;;;4985109;28;20060;-70
2023/04/18 00:26:50;;;;;;;31.30;8.10;;;7.00;99.90;;;;;;5018868;28;20052;-70
2023/04/18 00:29:16;;;;;;;13.93;7.87;;;7.00;99.90;;;;;;5002888;28;20069;-70
2023/04/18 00:31:42;;;;;;;16.07;7.60;;;7.00;99.90;;;;;;5011478;28;20041;-70
2023/04/18 00:34:08;;;;;;;15.73;7.40;;;7.00;99.90;;;;;;5003542;28;20034;-71
2023/04/18 00:36:33;;;;;;;11.70;6.03;;;7.10;99.90;;;;;;5006332;28;21903;-70
2023/04/18 00:39:05;;;;;;;11.77;7.10;;;7.10;99.90;;;;;;5018600;28;20037;-69
2023/04/18 00:41:31;;;;;;;12.98;7.20;;;7.10;99.90;;;;;;5001713;28;20111;-70
2023/04/18 00:43:56;;;;;;;11.40;6.57;;;7.10;99.90;;;;;;4998698;28;20038;-70
2023/04/18 00:46:22;;;;;;;12.77;6.73;;;7.10;99.90;;;;;;5013100;28;20116;-70
2023/04/18 00:48:48;;;;;;;13.33;7.37;;;7.10;99.90;;;;;;5000845;28;20164;-70
2023/04/18 00:51:14;;;;;;;11.20;6.78;;;7.10;99.90;;;;;;5019940;28;20115;-69
2023/04/18 00:53:41;;;;;;;14.88;7.20;;;7.10;99.90;;;;;;4997306;28;20129;-69
2023/04/18 00:56:07;;;;;;;15.27;7.72;;;7.00;99.90;;;;;;5016136;28;20091;-69
2023/04/18 00:58:32;;;;;;;15.77;7.07;;;7.00;99.90;;;;;;4996278;28;20066;-69
2023/04/18 01:00:58;;;;;;;13.80;7.80;;;7.00;99.90;;;;;;5017135;28;20064;-69
2023/04/18 01:03:36;;;;;;;14.40;8.03;;;6.90;99.90;;;;;;5002706;28;20046;-69
2023/04/18 01:06:02;;;;;;;17.00;7.38;;;6.90;99.90;;;;;;4991387;28;20739;-70
2023/04/18 01:08:27;;;;;;;16.77;8.32;;;7.00;99.90;;;;;;5000623;28;20546;-71
2023/04/18 01:10:53;;;;;;;12.07;6.30;;;6.90;99.90;;;;;;5000896;28;20055;-70
2023/04/18 01:13:19;;;;;;;15.23;6.93;;;6.90;99.90;;;;;;5019817;28;20044;-71
2023/04/18 01:15:49;;;;;;;10.93;7.05;;;6.90;99.90;;;;;;5017441;28;20037;-70
2023/04/18 01:18:16;;;;;;;15.60;7.78;;;6.90;99.90;;;;;;5010984;28;20046;-71
2023/04/18 01:20:46;;;;;;;14.40;7.20;;;6.90;99.90;;;;;;5020046;28;20048;-70
2023/04/18 01:23:13;;;;;;;15.60;6.78;;;6.90;99.90;;;;;;4997831;28;20045;-70
2023/04/18 01:25:38;;;;;;;14.23;6.93;;;6.90;99.90;;;;;;5022253;28;20049;-70
2023/04/18 01:28:05;;;;;;;17.43;7.00;;;6.90;99.90;;;;;;5023099;28;20041;-70
2023/04/18 01:30:32;;;;;;;14.02;7.05;;;6.90;99.90;;;;;;5019127;28;20092;-70
2023/04/18 01:33:00;;;;;;;12.10;6.22;;;6.90;99.90;;;;;;4987971;28;20372;-70
2023/04/18 01:35:26;;;;;;;11.98;6.95;;;6.90;99.90;;;;;;4993243;28;20273;-71
2023/04/18 01:37:51;;;;;;;11.90;6.80;;;6.80;99.90;;;;;;4988713;28;20502;-71
2023/04/18 01:40:17;;;;;;;11.87;6.10;;;6.80;99.90;;;;;;4991892;28;20041;-70
2023/04/18 01:42:43;;;;;;;15.73;7.33;;;6.80;99.90;;;;;;5022908;28;20462;-70
2023/04/18 01:45:09;;;;;;;12.30;6.20;;;6.80;99.90;;;;;;5008616;28;20056;-71
2023/04/18 01:47:35;;;;;;;;;;;6.70;99.90;;;;;;5015127;28;20399;-70
2023/04/18 01:50:01;;;;;;;10.80;6.32;;;6.80;99.90;;;;;;4996200;28;19917;-70
2023/04/18 01:52:29;;;;;;;11.05;5.50;;;6.80;99.90;;;;;;5017501;28;20042;-70
2023/04/18 01:54:55;;;;;;;10.60;5.83;;;6.80;99.90;;;;;;4995988;28;20531;-70
2023/04/18 01:57:21;;;;;;;15.23;6.17;;;6.80;99.90;;;;;;4982647;28;20271;-71
2023/04/18 01:59:46;;;;;;;10.80;5.30;;;6.80;99.90;;;;;;5020102;28;20065;-70
2023/04/18 02:02:12;;;;;;;12.60;6.27;;;6.80;99.90;;;;;;5020063;28;20065;-71
2023/04/18 02:04:38;;;;;;;10.07;6.07;;;6.70;99.90;;;;;;5019875;28;20458;-70
2023/04/18 02:07:04;;;;;;;13.50;5.67;;;6.70;99.90;;;;;;5018934;28;20044;-70
2023/04/18 02:09:29;;;;;;;10.15;5.95;;;6.70;99.90;;;;;;5015961;28;20112;-70
2023/04/18 02:11:58;;;;;;;10.53;5.80;;;6.70;99.90;;;;;;5023238;28;20129;-70
2023/04/18 02:16:51;;;;;;;10.65;5.70;;;6.70;99.90;;;;;;5077680;28;20409;-70
2023/04/18 02:19:16;;;;;;;8.50;5.10;;;6.70;99.90;;;;;;5057742;28;20040;-70
2023/04/18 02:21:43;;;;;;;11.20;5.63;;;6.60;99.90;;;;;;5057726;28;20760;-70
2023/04/18 02:24:09;;;;;;;11.93;5.13;;;6.60;99.90;;;;;;5039883;28;20493;-70
2023/04/18 02:26:35;;;;;;;10.50;5.70;;;6.60;99.90;;;;;;5050782;28;20032;-70
2023/04/18 02:29:00;;;;;;;10.87;5.30;;;6.60;99.90;;;;;;5049210;28;20703;-70
2023/04/18 02:31:27;;;;;;;9.80;4.93;;;6.60;99.90;;;;;;5047597;28;20179;-70
2023/04/18 02:33:52;;;;;;;8.52;5.22;;;6.60;99.90;;;;;;5060392;28;20097;-70
2023/04/18 02:36:18;;;;;;;11.30;5.10;;;6.60;99.90;;;;;;5051192;28;20052;-70
2023/04/18 02:38:46;;;;;;;11.88;5.35;;;6.60;99.90;;;;;;5047509;28;20040;-70
2023/04/18 02:41:14;;;;;;;13.60;6.20;;;6.60;99.90;;;;;;5032101;28;20528;-70
2023/04/18 02:43:40;;;;;;;10.02;5.05;;;6.60;99.90;;;;;;5070865;28;20101;-70
2023/04/18 02:46:06;;;;;;;8.00;4.55;;;6.50;99.90;;;;;;5053015;28;20055;-70
2023/04/18 02:48:32;;;;;;;7.63;4.28;;;6.50;99.90;;;;;;5050955;28;20501;-70
2023/04/18 02:51:04;;;;;;;9.57;4.73;;;6.60;99.90;;;;;;5040382;28;20046;-70
2023/04/18 02:53:30;;;;;;;8.38;4.28;;;6.50;99.90;;;;;;5051301;28;20047;-70
2023/04/18 02:55:56;;;;;;;10.77;4.73;;;6.50;99.90;;;;;;5056171;28;20037;-70
2023/04/18 02:58:22;;;;;;;9.40;4.43;;;6.50;99.90;;;;;;5048253;28;20059;-70
2023/04/18 03:00:49;;;;;;;8.40;4.43;;;6.50;99.90;;;;;;5074848;28;20047;-70
2023/04/18 03:03:15;;;;;;;9.52;4.35;;;6.50;99.90;;;;;;5055721;28;20393;-70
2023/04/18 03:05:41;;;;;;;8.55;4.50;;;6.50;99.90;;;;;;5047398;28;20573;-70
2023/04/18 03:08:06;;;;;;;8.60;4.40;;;6.50;99.90;;;;;;5052699;28;20127;-70
2023/04/18 03:10:32;;;;;;;7.13;3.97;;;6.50;99.90;;;;;;5060075;28;20032;-70
2023/04/18 03:12:58;;;;;;;8.10;4.07;;;6.50;99.90;;;;;;5036665;28;20040;-70
2023/04/18 03:15:23;;;;;;;9.20;5.03;;;6.50;99.90;;;;;;5053784;28;20028;-70
2023/04/18 03:17:49;;;;;;;8.37;3.73;;;6.50;99.90;;;;;;5051471;28;20040;-70
2023/04/18 03:20:16;;;;;;;9.63;4.30;;;6.60;99.90;;;;;;5056242;28;20523;-70
2023/04/18 03:22:42;;;;;;;;;;;6.60;99.90;;;;;;5037686;28;20532;-70
2023/04/18 03:25:08;;;;;;;7.72;4.28;;;6.60;99.90;;;;;;5050128;28;20011;-70
2023/04/18 03:27:33;;;;;;;7.13;3.53;;;6.60;99.90;;;;;;5031808;28;20123;-70
2023/04/18 03:29:59;;;;;;;7.03;3.33;;;6.60;99.90;;;;;;5053240;28;20408;-70
2023/04/18 03:32:25;;;;;;;9.40;4.55;;;6.70;99.90;;;;;;5065566;28;20040;-70
2023/04/18 03:34:54;;;;;;;7.55;4.10;;;6.70;99.90;;;;;;5053056;28;20123;-70
2023/04/18 03:37:22;;;;;;;9.00;4.30;;;6.70;99.90;;;;;;5045919;28;20052;-70
2023/04/18 03:39:47;;;;;;;8.10;4.40;;;6.70;99.90;;;;;;5056346;28;20079;-70
2023/04/18 03:42:13;;;;;;;9.40;4.50;;;6.70;99.90;;;;;;5051841;28;20068;-70
2023/04/18 03:44:38;;;;;;;8.83;4.57;;;6.80;99.90;;;;;;5051209;28;20221;-70
2023/04/18 03:47:04;;;;;;;9.43;4.30;;;6.80;99.90;;;;;;5066663;28;20654;-70
2023/04/18 03:49:30;;;;;;;8.10;4.27;;;6.80;99.90;;;;;;5049278;28;20039;-72
2023/04/18 03:51:55;;;;;;;7.87;4.80;;;6.80;99.90;;;;;;5053671;28;20507;-72
2023/04/18 03:54:21;;;;;;;7.27;3.60;;;6.80;99.90;;;;;;5039984;28;20040;-72
2023/04/18 03:56:46;;;;;;;7.97;4.33;;;6.90;99.90;;;;;;5047826;28;20501;-72
2023/04/18 03:59:12;;;;;;;7.70;4.60;;;6.90;99.90;;;;;;5055073;28;20396;-72
2023/04/18 04:01:38;;;;;;;7.30;4.37;;;6.90;99.90;;;;;;5053422;28;20516;-72
2023/04/18 04:04:04;;;;;;;8.23;3.90;;;6.90;99.90;;;;;;5055016;28;20050;-72
2023/04/18 04:06:31;;;;;;;8.57;4.15;;;6.90;99.90;;;;;;5075946;28;20036;-72
2023/04/18 04:08:56;;;;;;;7.75;4.50;;;6.90;99.90;;;;;;5055668;28;20054;-72
2023/04/18 04:11:22;;;;;;;9.48;4.00;;;7.00;99.90;;;;;;5048109;28;20041;-72
2023/04/18 04:13:48;;;;;;;9.23;4.17;;;6.90;99.90;;;;;;5058703;28;20099;-72
2023/04/18 04:16:13;;;;;;;9.10;4.20;;;6.90;99.90;;;;;;5073845;28;20032;-72
2023/04/18 04:18:39;;;;;;;10.50;4.30;;;6.90;99.90;;;;;;5054456;28;20068;-72
2023/04/18 04:21:05;;;;;;;9.80;5.10;;;6.90;99.90;;;;;;5051346;28;20035;-72
2023/04/18 04:23:32;;;;;;;7.93;3.92;;;6.90;99.90;;;;;;5037512;28;20134;-72
2023/04/18 04:26:01;;;;;;;5.97;3.40;;;6.90;99.90;;;;;;5059687;28;20119;-72
2023/04/18 04:28:27;;;;;;;13.02;4.20;;;7.00;99.90;;;;;;5070985;28;20398;-72
2023/04/18 04:30:54;;;;;;;7.33;3.53;;;7.00;99.90;;;;;;5056741;28;20044;-72
2023/04/18 04:33:23;;;;;;;7.38;4.05;;;7.00;99.90;;;;;;5061934;28;20529;-72
2023/04/18 04:35:51;;;;;;;6.32;3.90;;;7.00;99.90;;;;;;5051437;28;20481;-72
2023/04/18 04:38:18;;;;;;;9.90;4.47;;;7.10;99.90;;;;;;5076268;28;20616;-72
2023/04/18 04:40:45;;;;;;;6.80;3.88;;;7.10;99.90;;;;;;5050619;28;20044;-72
2023/04/18 04:43:14;;;;;;;8.35;3.90;;;7.20;99.90;;;;;;5052687;28;20059;-72
2023/04/18 04:45:43;;;;;;;6.95;4.10;;;7.20;99.90;;;;;;5050321;28;20040;-72
2023/04/18 04:48:09;;;;;;;8.23;4.55;;;7.20;99.90;;;;;;5053300;28;20727;-72
2023/04/18 04:50:37;;;;;;;8.00;3.70;;;7.20;99.90;;;;;;5038703;28;20040;-71
2023/04/18 04:53:03;;;;;;;11.27;4.80;;;7.30;99.90;;;;;;5070743;28;20403;-78
2023/04/18 04:55:29;;;;;;;8.35;4.47;;;7.30;99.90;;;;;;5064086;28;20048;-75
2023/04/18 04:57:56;;;;;;;9.32;4.10;;;7.30;99.90;;;;;;5064032;28;20044;-76
2023/04/18 05:00:22;;;;;;;8.40;4.30;;;7.30;99.90;;;;;;5038310;28;20041;-76
2023/04/18 05:02:48;;;;;;;8.63;3.87;;;7.40;99.90;;;;;;5053694;28;20355;-73
2023/04/18 05:05:13;;;;;;;7.50;4.22;;;7.40;99.90;;;;;;5067951;28;20342;-74
2023/04/18 05:07:39;;;;;;;7.37;3.97;;;7.50;99.90;;;;;;5045579;28;20447;-74
2023/04/18 05:10:05;;;;;;;12.57;4.20;;;7.40;99.90;;;;;;5039877;28;20039;-73
2023/04/18 05:12:31;;;;;;;8.98;4.85;;;7.50;99.90;;;;;;5055330;28;20079;-74
2023/04/18 05:14:56;;;;;;;8.87;4.73;;;7.50;99.90;;;;;;5058558;28;20472;-76
2023/04/18 05:17:22;;;;;;;9.20;4.93;;;7.50;99.90;;;;;;5054028;28;20039;-71
2023/04/18 05:19:48;;;;;;;8.65;4.53;;;7.50;99.90;;;;;;5053397;28;20117;-74
2023/04/18 05:22:13;;;;;;;9.23;4.53;;;7.60;99.90;;;;;;5070901;28;20037;-73
2023/04/18 05:24:40;;;;;;;12.33;5.10;;;7.60;99.90;;;;;;5043406;28;20102;-77
2023/04/18 05:27:05;;;;;;;6.65;4.40;;;7.60;99.90;;;;;;5041040;28;20089;-77
2023/04/18 05:29:31;;;;;;;7.72;4.32;;;7.60;99.90;;;;;;5062401;28;20048;-73
2023/04/18 05:31:57;;;;;;;12.30;4.63;;;7.60;99.90;;;;;;5050781;28;20086;-77
2023/04/18 05:34:22;;;;;;;9.97;4.80;;;7.60;99.90;;;;;;5053109;28;20073;-75
2023/04/18 05:36:48;;;;;;;9.37;5.07;;;7.60;99.90;;;;;;5050838;28;20454;-77
2023/04/18 05:39:14;;;;;;;12.07;5.03;;;7.70;99.90;;;;;;5052629;28;20036;-72
2023/04/18 05:41:40;;;;;;;12.75;5.70;;;7.70;99.90;;;;;;5060178;28;20293;-79
2023/04/18 05:44:05;;;;;;;10.23;4.90;;;7.70;99.90;;;;;;5034712;28;20044;-77
2023/04/18 05:46:32;;;;;;;8.73;5.23;;;7.80;99.90;;;;;;5057819;28;20036;-75
2023/04/18 05:48:57;;;;;;;8.55;4.93;;;7.80;99.90;;;;;;5048627;28;20048;-73
2023/04/18 05:51:23;;;;;;;9.87;5.23;;;7.80;99.90;;;;;;5053812;28;20067;-75
2023/04/18 05:53:48;;;;;;;8.20;4.83;;;7.80;99.90;;;;;;5052509;28;20036;-73
2023/04/18 05:56:14;;;;;;;8.53;5.13;;;7.80;99.90;;;;;;5059869;28;20040;-75
2023/04/18 05:58:40;;;;;;;8.43;4.83;;;7.80;99.90;;;;;;5051715;28;20032;-74
2023/04/18 06:01:06;;;;;;;10.80;5.27;;;7.90;99.90;;;;;;5048006;28;20043;-72
2023/04/18 06:03:32;;;;;;;8.10;4.80;;;7.90;99.90;;;;;;5048780;28;20033;-72
2023/04/18 06:05:57;;;;;;;9.17;5.47;;;7.90;99.90;;;;;;5049047;28;20486;-72
2023/04/18 06:08:23;;;;;;;13.17;5.43;;;7.90;99.90;;;;;;5041002;28;20079;-72
2023/04/18 06:10:49;;;;;;;10.50;6.30;;;8.00;99.90;;;;;;5057613;28;20135;-72
2023/04/18 06:13:14;;;;;;;10.80;5.53;;;8.00;99.90;;;;;;5070260;28;20431;-72
2023/04/18 06:15:40;;;;;;;10.20;5.77;;;8.10;99.90;;;;;;5039150;28;20040;-70
2023/04/18 06:18:06;;;;;;;13.33;5.50;;;8.10;99.90;;;;;;5047343;28;20122;-70
2023/04/18 06:20:31;;;;;;;12.70;5.63;;;8.20;99.90;;;;;;5032958;28;20044;-70
2023/04/18 06:22:57;;;;;;;11.77;5.87;;;8.30;99.90;;;;;;5070933;28;20047;-70
2023/04/18 06:25:23;;;;;;;9.33;6.00;;;8.30;99.90;;;;;;5066027;28;20066;-70
2023/04/18 06:27:49;;;;;;;9.13;5.28;;;8.30;99.90;;;;;;5052202;28;20284;-70
2023/04/18 06:30:15;;;;;;;10.13;5.50;;;8.30;99.90;;;;;;5069900;28;20044;-70
2023/04/18 06:32:40;;;;;;;13.23;5.57;;;8.30;99.90;;;;;;5052170;28;20521;-70
2023/04/18 06:35:06;;;;;;;15.00;6.07;;;8.20;99.90;;;;;;5049098;28;20555;-70
2023/04/18 06:37:32;;;;;;;10.90;5.90;;;8.20;99.90;;;;;;5054938;28;20388;-70
2023/04/18 06:39:57;;;;;;;9.67;6.00;;;8.30;99.90;;;;;;5052457;28;20083;-70
2023/04/18 06:42:23;;;;;;;12.10;6.10;;;8.20;99.90;;;;;;5047542;28;20123;-70
2023/04/18 06:44:49;;;;;;;10.93;5.10;;;8.20;99.90;;;;;;5054676;28;20497;-70
2023/04/18 06:47:15;;;;;;;11.13;5.72;;;8.20;99.90;;;;;;5050345;28;20036;-70
2023/04/18 06:49:40;;;;;;;12.88;6.07;;;8.30;99.90;;;;;;5053458;28;20383;-72
2023/04/18 06:52:06;;;;;;;12.07;5.57;;;8.30;99.90;;;;;;5048158;28;20172;-70
2023/04/18 06:54:32;;;;;;;11.97;5.00;;;8.40;99.90;;;;;;5040121;28;20036;-70
2023/04/18 06:56:58;;;;;;;10.50;5.10;;;8.40;99.90;;;;;;5051182;28;20040;-70
2023/04/18 06:59:24;;;;;;;10.60;5.65;;;8.40;99.90;;;;;;5068979;28;20411;-69
2023/04/18 07:01:50;;;;;;;10.73;5.00;;;8.60;99.90;;;;;;5058909;28;20144;-70
2023/04/18 07:04:15;;;;;;;9.32;5.45;;;8.60;99.90;;;;;;5055044;28;20616;-70
2023/04/18 07:06:41;;;;;;;9.63;5.47;;;8.70;99.90;;;;;;5036761;28;20487;-70
2023/04/18 07:09:07;;;;;;;10.93;5.60;;;8.80;99.90;;;;;;5078958;28;20233;-70
2023/04/18 07:11:33;;;;;;;12.03;5.40;;;8.80;99.90;;;;;;5055983;28;20397;-70
2023/04/18 07:13:58;;;;;;;10.77;5.37;;;8.90;99.90;;;;;;5073908;28;20047;-70
2023/04/18 07:16:24;;;;;;;9.40;5.03;;;9.00;99.90;;;;;;5052856;28;20036;-70
2023/04/18 07:18:50;;;;;;;12.67;5.17;;;9.00;99.90;;;;;;5057313;28;20040;-69
2023/04/18 07:21:17;;;;;;;9.68;5.28;;;9.10;99.90;;;;;;5054366;28;20123;-69
2023/04/18 07:23:42;;;;;;;9.07;4.93;;;9.10;99.90;;;;;;5052251;28;20494;-70
2023/04/18 07:26:12;;;;;;;8.27;4.43;;;9.20;99.90;;;;;;5057918;28;20101;-70
2023/04/18 07:28:38;;;;;;;9.43;5.45;;;9.30;99.90;;;;;;5055592;28;20374;-70
2023/04/18 07:31:03;;;;;;;8.77;4.70;;;9.30;99.90;;;;;;5057848;28;20115;-70
2023/04/18 07:33:32;;;;;;;11.77;4.53;;;9.30;99.90;;;;;;5055250;28;20585;-71
2023/04/18 07:35:59;;;;;;;9.70;4.75;;;9.40;99.90;;;;;;5053521;28;21014;-70
2023/04/18 07:38:26;;;;;;;10.52;5.18;;;9.40;99.90;;;;;;5056924;28;20076;-70
2023/04/18 07:40:56;;;;;;;11.43;5.45;;;9.50;99.90;;;;;;5054069;28;20055;-70
2023/04/18 07:43:22;;;;;;;10.20;4.95;;;9.50;99.90;;;;;;5047662;28;20490;-70
2023/04/18 07:45:47;;;;;;;7.90;4.60;;;9.60;99.90;;;;;;5041313;28;20050;-70
2023/04/18 07:48:13;;;;;;;8.50;5.03;;;9.70;99.90;;;;;;5046016;28;20096;-70
2023/04/18 07:50:39;;;;;;;9.55;4.97;;;9.70;99.90;;;;;;5063979;28;20032;-70
2023/04/18 07:53:05;;;;;;;8.87;4.83;;;9.80;99.90;;;;;;5061720;28;20294;-70
2023/04/18 07:55:30;;;;;;;8.23;5.05;;;9.80;99.90;;;;;;5062558;28;20287;-70
2023/04/18 07:57:56;;;;;;;12.05;4.75;;;9.90;99.90;;;;;;5055793;28;20042;-70
2023/04/18 08:00:21;;;;;;;9.40;5.23;;;9.90;99.90;;;;;;5076444;28;20120;-69
2023/04/18 08:02:47;;;;;;;8.07;5.20;;;9.90;99.90;;;;;;5064362;28;20047;-70
2023/04/18 08:05:13;;;;;;;9.83;5.23;;;10.00;99.90;;;;;;5048195;28;20089;-69
2023/04/18 08:07:38;;;;;;;9.90;5.20;;;10.20;99.90;;;;;;5064201;28;20078;-70
2023/04/18 08:10:05;;;;;;;12.43;5.43;;;10.20;99.90;;;;;;5047405;28;20123;-70
2023/04/18 08:12:30;;;;;;;11.25;5.45;;;10.30;99.90;;;;;;5079634;28;20123;-70
2023/04/18 08:14:56;;;;;;;8.83;4.43;;;10.30;99.90;;;;;;5061585;22;20593;-70
2023/04/18 08:17:22;;;;;;;9.70;4.93;;;10.40;99.90;;;;;;5036049;28;20044;-70
2023/04/18 08:19:47;;;;;;;11.15;5.78;;;10.50;99.90;;;;;;5025886;28;20079;-70
2023/04/18 08:22:13;;;;;;;11.23;4.73;;;10.50;99.90;;;;;;5037222;28;20068;-70
2023/04/18 08:24:39;;;;;;;8.40;4.70;;;10.40;99.90;;;;;;5005428;28;20084;-70
2023/04/18 08:27:05;;;;;;;9.63;5.70;;;10.50;99.90;;;;;;5010179;28;20149;-70
2023/04/18 08:29:32;;;;;;;8.57;5.03;;;10.50;99.90;;;;;;5020892;28;20312;-70
2023/04/18 08:31:57;;;;;;;9.00;5.20;;;10.60;99.90;;;;;;5033799;28;20715;-70
2023/04/18 08:34:23;;;;;;;9.70;5.47;;;10.70;99.90;;;;;;5041286;28;20043;-70
2023/04/18 08:36:52;;;;;;;9.73;5.70;;;10.80;99.90;;;;;;5021458;28;20298;-70
2023/04/18 08:39:18;;;;;;;8.65;5.00;;;10.90;99.90;;;;;;5005636;28;20483;-70
2023/04/18 08:41:51;;;;;;;10.77;5.30;;;11.00;99.90;;;;;;5036989;28;20083;-70
2023/04/18 08:44:16;;;;;;;10.50;5.82;;;11.00;99.90;;;;;;5014905;28;20111;-70
2023/04/18 08:46:42;;;;;;;10.90;6.20;;;11.10;99.90;;;;;;5031650;28;20120;-70
2023/04/18 08:49:08;;;;;;;10.27;5.68;;;11.20;99.90;;;;;;5034219;28;20120;-70
2023/04/18 08:51:38;;;;;;;11.68;5.78;;;11.30;99.90;;;;;;5024047;28;20099;-70
2023/04/18 08:54:05;;;;;;;10.43;4.78;;;11.30;99.90;;;;;;5018877;28;20041;-70
2023/04/18 08:56:31;;;;;;;9.45;4.55;;;11.40;99.90;;;;;;5007064;28;20083;-70
2023/04/18 08:59:00;;;;;;;7.88;5.10;;;11.50;99.90;;;;;;5043378;28;20057;-70
2023/04/18 09:01:58;;;;;;;8.65;5.32;;;11.50;99.90;;;;;;5035163;28;20059;-70
2023/04/18 09:04:43;;;;;;;9.65;5.10;;;11.70;99.90;;;;;;5036917;28;20112;-70
2023/04/18 09:07:14;;;;;;;8.23;4.90;;;11.80;99.90;;;;;;5018342;28;20105;-70
2023/04/18 09:09:44;;;;;;;12.15;5.63;;;11.80;99.90;;;;;;5045227;28;20545;-70
2023/04/18 09:12:13;;;;;;;13.48;5.10;;;11.90;99.90;;;;;;5030480;28;20037;-70
2023/04/18 09:14:44;;;;;;;12.32;5.38;;;12.00;99.90;;;;;;5015933;28;20044;-70
2023/04/18 09:17:34;;;;;;;8.25;4.97;;;12.10;99.90;;;;;;5026406;28;20115;-70
2023/04/18 09:20:01;;;;;;;8.95;5.07;;;12.20;99.90;;;;;;5024503;28;20544;-70
2023/04/18 09:22:49;;;;;;;9.98;5.15;;;12.30;99.90;;;;;;5016218;28;20037;-70
2023/04/18 09:25:33;;;;;;;10.00;5.28;;;12.40;99.90;;;;;;5023584;28;20045;-70
2023/04/18 09:28:00;;;;;;;16.38;4.85;;;12.40;99.90;;;;;;5021323;28;20049;-70
2023/04/18 09:30:40;;;;;;;7.50;4.82;;;12.50;99.90;;;;;;5011293;28;20052;-70
2023/04/18 09:33:08;;;;;;;11.00;6.40;;;12.60;99.60;;;;;;5039100;28;20037;-70
2023/04/18 09:35:35;;;;;;;10.25;6.07;;;12.70;99.40;;;;;;5008387;28;20045;-70
2023/04/18 09:38:01;;;;;;;8.55;5.25;;;12.70;98.30;;;;;;5015468;28;20151;-70
2023/04/18 09:40:27;;;;;;;8.13;4.93;;;12.80;98.50;;;;;;4994791;28;20069;-70
2023/04/18 09:42:53;;;;;;;10.85;5.43;;;12.80;99.00;;;;;;5025636;28;20044;-70
2023/04/18 09:45:20;;;;;;;10.02;5.65;;;13.00;98.40;;;;;;5016426;28;20049;-70
2023/04/18 09:47:45;;;;;;;10.15;4.68;;;13.10;98.00;;;;;;5028127;28;20402;-70
2023/04/18 09:50:11;;;;;;;9.97;5.33;;;13.20;98.10;;;;;;5021639;28;20082;-70
2023/04/18 09:52:39;;;;;;;9.63;5.23;;;13.20;97.60;;;;;;5018556;28;20191;-70
2023/04/18 09:55:07;;;;;;;10.10;5.40;;;13.30;97.70;;;;;;5025850;28;20041;-70
2023/04/18 09:57:35;;;;;;;10.13;5.65;;;13.50;97.20;;;;;;5037648;28;20509;-70
2023/04/18 10:00:16;;;;;;;9.43;5.40;;;13.50;96.30;;;;;;5021817;28;20041;-70
2023/04/18 10:02:58;;;;;;;6.80;4.40;;;13.50;95.80;;;;;;5034831;28;20049;-71
2023/04/18 10:05:27;;;;;;;7.93;4.97;;;13.60;95.70;;;;;;4997895;28;20040;-70
2023/04/18 10:07:53;;;;;;;8.88;5.60;;;13.70;95.50;;;;;;5010672;28;20112;-70
2023/04/18 10:10:20;;;;;;;10.07;5.90;;;13.80;95.10;;;;;;5033182;28;20049;-70
2023/04/18 10:12:46;;;;;;;;;;;13.80;94.20;;;;;;5037488;28;20064;-70
2023/04/18 10:15:14;;;;;;;8.43;5.03;;;13.80;94.50;;;;;;5014589;28;19932;-70
2023/04/18 10:17:45;;;;;;;11.63;5.38;;;13.80;94.10;;;;;;5009651;28;20339;-70
2023/04/18 10:20:26;;;;;;;9.75;4.88;;;13.90;93.80;;;;;;5037426;28;20618;-70
2023/04/18 10:22:53;;;;;;;8.82;5.10;;;14.00;93.60;;;;;;5034209;28;20102;-70
2023/04/18 10:25:37;;;;;;;9.40;4.72;;;14.00;93.20;;;;;;5038908;28;20048;-70
2023/04/18 10:28:03;;;;;;;8.77;4.30;;;14.00;93.40;;;;;;5038393;28;20036;-70
2023/04/18 10:30:41;;;;;;;7.03;4.40;;;14.10;92.80;;;;;;5035558;28;20112;-70
2023/04/18 10:33:40;;;;;;;8.60;4.65;;;14.20;92.80;;;;;;5036098;28;20514;-70
2023/04/18 10:36:11;;;;;;;8.63;4.57;;;14.40;92.40;;;;;;5002771;28;20076;-70
2023/04/18 10:38:46;;;;;;;8.73;5.70;;;14.40;92.60;;;;;;5001759;28;20128;-70
2023/04/18 10:41:14;;;;;;;7.60;4.60;;;14.40;92.40;;;;;;5017429;28;20068;-70
2023/04/18 10:44:05;;;;;;;8.63;4.97;;;14.50;91.70;;;;;;5052607;28;20564;-70
2023/04/18 10:46:31;;;;;;;11.65;5.80;;;14.60;91.80;;;;;;5035837;28;20041;-70
2023/04/18 10:49:17;;;;;;;8.85;5.10;;;14.60;91.50;;;;;;5017244;28;20635;-70
2023/04/18 10:51:44;;;;;;;11.77;4.45;;;14.60;90.90;;;;;;5034612;28;20072;-70
2023/04/18 10:54:21;;;;;;;9.30;5.00;;;14.60;91.00;;;;;;5035516;28;20049;-70
2023/04/18 10:56:58;;;;;;;11.27;5.20;;;14.80;90.50;;;;;;5022118;28;20052;-70
2023/04/18 10:59:25;;;;;;;11.63;6.15;;;14.80;90.20;;;;;;5039701;28;20045;-70
2023/04/18 11:02:19;;;;;;;10.30;5.13;;;14.80;90.20;;;;;;5012778;28;20551;-70
2023/04/18 11:04:52;;;;;;;8.55;4.72;;;14.80;90.60;;;;;;5007830;28;20104;-70
2023/04/18 11:07:19;;;;;;;9.85;4.72;;;14.90;90.20;;;;;;5027006;28;20554;-70
2023/04/18 11:09:53;;;;;;;11.18;4.50;;;14.90;90.40;;;;;;4993163;28;20128;-70
2023/04/18 11:12:18;;;;;;;7.63;3.85;;;15.10;90.70;;;;;;4999572;28;20041;-70
2023/04/18 11:14:46;;;;;;;6.73;4.00;;;15.20;90.80;;;;;;5024063;28;20328;-70
2023/04/18 11:17:33;;;;;;;7.57;4.20;;;15.30;90.60;;;;;;5022514;28;20778;-70
2023/04/18 11:20:13;;;;;;;5.57;3.85;;;15.30;89.90;;;;;;5024033;28;20057;-70
2023/04/18 11:22:58;;;;;;;7.15;3.40;;;15.30;90.30;;;;;;5028361;28;20071;-71
2023/04/18 11:25:33;;;;;;;5.65;3.35;;;15.40;90.00;;;;;;5033663;28;20029;-70
2023/04/18 11:28:00;;;;;;;8.50;4.35;;;15.40;90.10;;;;;;5015712;28;20076;-70
2023/04/18 11:30:27;;;;;;;6.78;4.00;;;15.60;90.40;;;;;;5019477;28;20045;-70
2023/04/18 11:32:54;;;;;;;7.00;3.78;;;15.60;90.40;;;;;;5042085;28;20043;-70
2023/04/18 11:35:20;;;;;;;6.93;4.15;;;15.70;89.90;;;;;;5026235;28;20080;-70
2023/04/18 11:37:46;;;;;;;6.80;4.18;;;15.70;88.30;;;;;;5034324;28;20439;-70
2023/04/18 11:40:12;;;;;;;6.07;3.50;;;15.60;90.00;;;;;;5033666;28;20426;-70
2023/04/18 11:42:39;;;;;;;10.07;4.15;;;15.70;90.10;;;;;;5008206;28;20052;-70
2023/04/18 11:45:10;;;;;;;7.97;4.10;;;15.80;90.60;;;;;;5007088;28;20040;-70
2023/04/18 11:47:36;;;;;;;10.55;3.65;;;15.90;90.30;;;;;;5016337;28;20196;-70
2023/04/18 11:50:04;;;;;;;7.18;4.07;;;16.00;90.10;;;;;;5022634;28;20350;-70
2023/04/18 11:52:30;;;;;;;5.60;3.80;;;16.10;90.20;;;;;;5001584;28;20102;-71
2023/04/18 11:55:12;;;;;;;9.70;3.88;;;16.10;89.20;;;;;;5013907;28;20041;-70
2023/04/18 11:57:38;;;;;;;6.28;3.35;;;16.10;88.90;;;;;;5028808;28;20509;-70
2023/04/18 12:00:06;;;;;;;8.02;3.88;;;16.20;89.00;;;;;;5019603;28;20132;-70
2023/04/18 12:02:39;;;;;;;6.13;3.70;;;16.20;89.20;;;;;;5023775;28;20045;-70
2023/04/18 12:05:05;;;;;;;6.25;3.72;;;16.30;88.10;;;;;;5026120;28;20628;-70
2023/04/18 12:07:41;;;;;;;5.43;3.47;;;16.30;88.70;;;;;;5029179;28;20047;-70
2023/04/18 12:10:19;;;;;;;5.47;3.45;;;16.40;88.10;;;;;;5021588;28;20053;-70
2023/04/18 12:12:49;;;;;;;8.10;4.20;;;16.50;87.60;;;;;;5038330;28;20041;-70
2023/04/18 12:15:16;;;;;;;5.15;3.42;;;16.50;86.80;;;;;;5034880;28;20041;-70
2023/04/18 12:17:43;;;;;;;6.55;3.90;;;16.60;87.50;;;;;;5025273;28;20045;-70
2023/04/18 12:20:10;;;;;;;6.30;3.58;;;16.60;87.40;;;;;;5004610;28;20129;-70
2023/04/18 12:22:44;;;;;;;8.00;3.85;;;16.70;86.90;;;;;;5024012;28;20041;-70
2023/04/18 12:25:22;;;;;;;6.47;3.80;;;16.80;87.50;;;;;;5021952;28;20402;-70
2023/04/18 12:27:49;;;;;;;5.63;3.92;;;16.90;87.80;;;;;;5040739;28;20044;-70
2023/04/18 12:30:15;;;;;;;6.85;4.15;;;17.00;87.90;;;;;;5009105;28;20380;-70
2023/04/18 12:32:43;;;;;;;7.18;3.78;;;17.10;87.10;;;;;;5039927;28;20041;-70
2023/04/18 12:35:09;;;;;;;5.30;3.63;;;17.10;86.80;;;;;;5008380;28;20217;-70
2023/04/18 12:37:34;;;;;;;8.80;4.22;;;17.20;86.70;;;;;;5026187;28;20033;-70
2023/04/18 12:40:00;;;;;;;6.57;3.92;;;17.20;86.10;;;;;;5042229;28;20494;-70
2023/04/18 12:42:25;;;;;;;4.70;3.08;;;17.30;86.80;;;;;;5026256;28;20041;-70
2023/04/18 12:44:51;;;;;;;5.82;3.20;;;17.30;84.80;;;;;;5020906;28;20131;-70
2023/04/18 12:47:17;;;;;;;4.95;3.17;;;17.20;83.50;;;;;;5039813;28;20064;-70
2023/04/18 12:49:42;;;;;;;7.75;3.72;;;17.20;83.90;;;;;;5032443;28;20705;-70
2023/04/18 12:52:08;;;;;;;5.83;3.40;;;17.30;84.60;;;;;;5039019;28;20045;-70
2023/04/18 12:54:34;;;;;;;4.82;3.40;;;17.40;84.00;;;;;;5020745;28;20627;-70
2023/04/18 12:57:00;;;;;;;5.90;3.20;;;17.50;82.80;;;;;;5036657;28;20053;-70